createdAt,value
2023-08-30T00:00:00.130Z,1011.6
2023-08-30T00:05:00.145Z,1011.7
2023-08-30T00:10:00.132Z,1011.6
2023-08-30T00:15:00.105Z,1011.6
2023-08-30T00:20:00.143Z,1011.5
2023-08-30T00:25:00.154Z,1011.5
2023-08-30T00:30:00.183Z,1011.6
2023-08-30T00:35:00.132Z,1011.6
2023-08-30T00:40:00.156Z,1011.6
2023-08-30T00:45:00.132Z,1011.5
2023-08-30T00:50:00.173Z,1011.6
2023-08-30T00:55:00.164Z,1011.6
2023-08-30T01:00:00.184Z,1011.5
2023-08-30T01:05:00.156Z,1011.5
2023-08-30T01:10:00.150Z,1011.5
2023-08-30T01:15:00.142Z,1011.6
2023-08-30T01:20:00.162Z,1011.5
2023-08-30T01:25:00.147Z,1011.5
2023-08-30T01:30:00.129Z,1011.4
2023-08-30T01:35:00.133Z,1011.4
2023-08-30T01:40:00.153Z,1011.4
2023-08-30T01:45:00.154Z,1011.5
2023-08-30T01:50:00.131Z,1011.5
2023-08-30T01:55:00.126Z,1011.6
2023-08-30T02:00:00.283Z,1011.6
2023-08-30T02:05:00.232Z,1011.6
2023-08-30T02:10:00.135Z,1011.7
2023-08-30T02:15:00.169Z,1011.8
2023-08-30T02:20:00.147Z,1011.8
2023-08-30T02:25:00.138Z,1011.8
2023-08-30T02:30:00.176Z,1011.7
2023-08-30T02:35:00.124Z,1011.7
2023-08-30T02:40:00.135Z,1011.7
2023-08-30T02:45:00.144Z,1011.7
2023-08-30T02:50:00.139Z,1011.7
2023-08-30T02:55:00.140Z,1011.8
2023-08-30T03:00:00.145Z,1011.7
2023-08-30T03:05:00.138Z,1011.7
2023-08-30T03:10:00.143Z,1011.7
2023-08-30T03:15:00.139Z,1011.7
2023-08-30T03:20:00.150Z,1011.7
2023-08-30T03:25:00.159Z,1011.8
2023-08-30T03:30:00.138Z,1011.9
2023-08-30T03:35:00.169Z,1011.8
2023-08-30T03:40:00.151Z,1011.7
2023-08-30T03:45:00.186Z,1011.6
2023-08-30T03:50:00.152Z,1011.6
2023-08-30T03:55:00.142Z,1011.7
2023-08-30T04:00:00.182Z,1011.6
2023-08-30T04:05:00.152Z,1011.7
2023-08-30T04:10:00.123Z,1011.7
2023-08-30T04:15:00.170Z,1011.6
2023-08-30T04:20:00.797Z,1011.6
2023-08-30T04:25:00.131Z,1011.5
2023-08-30T04:30:00.179Z,1011.5
2023-08-30T04:35:00.209Z,1011.5
2023-08-30T04:40:00.125Z,1011.4
2023-08-30T04:45:00.321Z,1011.5
2023-08-30T04:50:00.140Z,1011.5
2023-08-30T04:55:00.134Z,1011.5
2023-08-30T05:00:00.154Z,1011.5
2023-08-30T05:05:00.151Z,1011.5
2023-08-30T05:10:00.128Z,1011.6
2023-08-30T05:15:00.145Z,1011.6
2023-08-30T05:20:00.204Z,1011.6
2023-08-30T05:25:00.126Z,1011.6
2023-08-30T05:30:00.119Z,1011.6
2023-08-30T05:35:00.137Z,1011.5
2023-08-30T05:40:00.132Z,1011.4
2023-08-30T05:45:00.176Z,1011.5
2023-08-30T05:50:00.166Z,1011.4
2023-08-30T05:55:00.134Z,1011.5
2023-08-30T06:00:00.110Z,1011.6
2023-08-30T06:05:00.114Z,1011.4
2023-08-30T06:10:00.126Z,1011.6
2023-08-30T06:15:00.133Z,1011.7
2023-08-30T06:20:00.184Z,1011.7
2023-08-30T06:25:00.159Z,1011.7
2023-08-30T06:30:00.139Z,1011.6
2023-08-30T06:35:00.138Z,1011.6
2023-08-30T06:40:00.191Z,1011.6
2023-08-30T06:45:00.179Z,1011.6
2023-08-30T06:50:00.201Z,1011.6
2023-08-30T06:55:00.203Z,1011.6
2023-08-30T07:00:00.160Z,1011.5
2023-08-30T07:05:00.166Z,1011.6
2023-08-30T07:10:00.138Z,1011.5
2023-08-30T07:15:00.133Z,1011.4
2023-08-30T07:20:00.159Z,1011.4
2023-08-30T07:25:00.187Z,1011.4
2023-08-30T07:30:00.176Z,1011.4
2023-08-30T07:35:00.161Z,1011.4
2023-08-30T07:40:00.251Z,1011.4
2023-08-30T07:45:00.200Z,1011.4
2023-08-30T07:50:00.152Z,1011.5
2023-08-30T07:55:00.212Z,1011.5
2023-08-30T08:00:00.130Z,1011.5
2023-08-30T08:05:00.157Z,1011.6
2023-08-30T08:10:00.148Z,1011.6
2023-08-30T08:15:00.162Z,1011.5
2023-08-30T08:20:00.151Z,1011.5
2023-08-30T08:25:00.126Z,1011.5
2023-08-30T08:30:00.130Z,1011.4
2023-08-30T08:35:00.133Z,1011.4
2023-08-30T08:40:00.152Z,1011.3
2023-08-30T08:45:00.140Z,1011.3
2023-08-30T08:50:00.125Z,1011.3
2023-08-30T08:55:00.146Z,1011.2
2023-08-30T09:00:00.177Z,1011.3
2023-08-30T09:05:00.192Z,1011.3
2023-08-30T09:10:00.170Z,1011.3
2023-08-30T09:15:00.135Z,1011.2
2023-08-30T09:20:00.150Z,1011.2
2023-08-30T09:25:00.125Z,1011.1
2023-08-30T09:30:00.118Z,1011.2
2023-08-30T09:35:00.151Z,1011.2
2023-08-30T09:40:00.217Z,1011.2
2023-08-30T09:45:00.170Z,1011.1
2023-08-30T09:50:00.165Z,1011
2023-08-30T09:55:00.146Z,1011
2023-08-30T10:00:00.146Z,1011
2023-08-30T10:05:00.248Z,1011
2023-08-30T10:10:09.688Z,1010.8
2023-08-30T10:15:00.901Z,1010.8
2023-08-30T10:20:00.172Z,1010.7
2023-08-30T10:25:10.606Z,1010.6
2023-08-30T10:30:00.144Z,1010.6
2023-08-30T10:35:00.156Z,1010.5
2023-08-30T10:40:00.206Z,1010.5
2023-08-30T10:50:00.164Z,1010.6
2023-08-30T10:55:00.132Z,1010.4
2023-08-30T11:00:00.140Z,1010.3
2023-08-30T11:05:00.206Z,1010.2
2023-08-30T11:10:00.134Z,1010.2
2023-08-30T11:15:00.177Z,1010.2
2023-08-30T11:20:00.165Z,1010.2
2023-08-30T11:25:00.101Z,1010.2
2023-08-30T11:30:00.128Z,1010.2
2023-08-30T11:35:00.128Z,1010.1
2023-08-30T11:40:00.154Z,1010.1
2023-08-30T11:45:00.116Z,1010.2
2023-08-30T11:50:00.200Z,1010.1
2023-08-30T11:55:00.135Z,1010.1
2023-08-30T12:00:00.135Z,1010
2023-08-30T12:05:00.118Z,1009.9
2023-08-30T12:10:00.149Z,1009.8
2023-08-30T12:15:00.156Z,1009.9
2023-08-30T12:20:00.321Z,1009.8
2023-08-30T12:25:01.393Z,1009.7
2023-08-30T12:30:00.148Z,1009.7
2023-08-30T12:35:00.148Z,1009.7
2023-08-30T12:40:00.215Z,1009.7
2023-08-30T12:45:00.112Z,1009.7
2023-08-30T12:50:00.209Z,1009.6
2023-08-30T12:55:00.137Z,1009.6
2023-08-30T13:00:00.133Z,1009.7
2023-08-30T13:05:00.119Z,1009.7
2023-08-30T13:10:00.127Z,1009.8
2023-08-30T13:15:00.187Z,1009.7
2023-08-30T13:20:00.140Z,1009.6
2023-08-30T13:25:01.180Z,1009.6
2023-08-30T13:30:00.175Z,1009.5
2023-08-30T13:35:00.117Z,1009.4
2023-08-30T13:40:00.139Z,1009.4
2023-08-30T13:45:00.212Z,1009.2
2023-08-30T13:50:01.068Z,1009.2
2023-08-30T13:55:00.130Z,1009.1
2023-08-30T14:00:00.140Z,1009.1
2023-08-30T14:05:00.138Z,1009.2
2023-08-30T14:10:00.157Z,1009.2
2023-08-30T14:15:00.102Z,1009.2
2023-08-30T14:20:00.153Z,1009.1
2023-08-30T14:25:11.629Z,1009.2
2023-08-30T14:30:00.118Z,1009.2
2023-08-30T14:35:00.137Z,1009.2
2023-08-30T14:40:00.261Z,1009.1
2023-08-30T14:45:00.130Z,1009.1
2023-08-30T14:50:00.129Z,1009.1
2023-08-30T14:55:00.129Z,1009.1
2023-08-30T15:00:00.140Z,1009.1
2023-08-30T15:05:00.140Z,1009
2023-08-30T15:10:00.168Z,1008.9
2023-08-30T15:15:00.171Z,1008.9
2023-08-30T15:20:00.122Z,1009
2023-08-30T15:25:00.137Z,1008.9
2023-08-30T15:30:00.125Z,1008.9
2023-08-30T15:35:00.168Z,1008.8
2023-08-30T15:40:01.772Z,1008.9
2023-08-30T15:45:00.132Z,1008.8
2023-08-30T15:50:00.165Z,1008.9
2023-08-30T15:55:00.140Z,1008.8
2023-08-30T16:00:00.133Z,1008.9
2023-08-30T16:05:00.107Z,1009
2023-08-30T16:10:02.074Z,1009
2023-08-30T16:15:00.105Z,1009.1
2023-08-30T16:20:00.153Z,1009
2023-08-30T16:25:00.124Z,1009
2023-08-30T16:30:00.122Z,1008.9
2023-08-30T16:35:00.196Z,1008.8
2023-08-30T16:40:00.170Z,1008.8
2023-08-30T16:45:00.128Z,1008.9
2023-08-30T16:50:00.117Z,1008.8
2023-08-30T16:55:00.133Z,1008.7
2023-08-30T17:00:00.138Z,1008.7
2023-08-30T17:05:00.107Z,1008.7
2023-08-30T17:10:00.130Z,1008.7
2023-08-30T17:15:00.145Z,1008.8
2023-08-30T17:20:00.285Z,1008.8
2023-08-30T17:25:00.127Z,1008.8
2023-08-30T17:30:00.127Z,1008.8
2023-08-30T17:35:00.155Z,1008.7
2023-08-30T17:40:00.204Z,1008.7
2023-08-30T17:45:00.854Z,1008.7
2023-08-30T17:50:00.207Z,1008.8
2023-08-30T17:55:00.169Z,1008.9
2023-08-30T18:00:00.170Z,1008.9
2023-08-30T18:05:00.142Z,1008.9
2023-08-30T18:10:00.136Z,1008.9
2023-08-30T18:15:00.140Z,1008.9
2023-08-30T18:20:00.250Z,1008.9
2023-08-30T18:25:00.137Z,1008.9
2023-08-30T18:30:00.128Z,1008.9
2023-08-30T18:35:00.187Z,1009
2023-08-30T18:40:00.168Z,1009
2023-08-30T18:45:00.104Z,1009
2023-08-30T18:50:00.178Z,1009
2023-08-30T18:55:00.144Z,1009.1
2023-08-30T19:00:00.136Z,1009.2
2023-08-30T19:05:00.128Z,1009.2
2023-08-30T19:10:00.142Z,1009.2
2023-08-30T19:15:00.144Z,1009.2
2023-08-30T19:20:00.180Z,1009.4
2023-08-30T19:25:00.143Z,1009.6
2023-08-30T19:30:00.171Z,1009.6
2023-08-30T19:35:00.160Z,1009.6
2023-08-30T19:40:00.181Z,1009.6
2023-08-30T19:45:00.150Z,1009.6
2023-08-30T19:50:00.163Z,1009.6
2023-08-30T19:55:00.123Z,1009.7
2023-08-30T20:00:00.164Z,1009.8
2023-08-30T20:05:00.130Z,1009.8
2023-08-30T20:10:00.186Z,1009.9
2023-08-30T20:15:00.167Z,1010
2023-08-30T20:20:00.275Z,1010.2
2023-08-30T20:25:00.201Z,1010.8
2023-08-30T20:30:00.123Z,1011
2023-08-30T20:35:00.188Z,1010.8
2023-08-30T20:40:00.178Z,1010.8
2023-08-30T20:45:00.134Z,1010.9
2023-08-30T20:50:00.147Z,1010.9
2023-08-30T20:55:00.138Z,1010.7
2023-08-30T21:00:00.128Z,1010.9
2023-08-30T21:05:00.118Z,1011
2023-08-30T21:10:00.151Z,1011
2023-08-30T21:15:00.136Z,1011.1
2023-08-30T21:20:00.177Z,1011.1
2023-08-30T21:25:00.108Z,1011
2023-08-30T21:30:00.135Z,1011
2023-08-30T21:35:00.174Z,1010.9
2023-08-30T21:40:00.177Z,1011
2023-08-30T21:45:00.124Z,1011.1
2023-08-30T21:50:00.123Z,1011
2023-08-30T21:55:00.125Z,1010.9
2023-08-30T22:00:00.143Z,1010.8
2023-08-30T22:05:00.136Z,1010.7
2023-08-30T22:10:00.207Z,1010.7
2023-08-30T22:15:00.108Z,1010.7
2023-08-30T22:20:00.169Z,1011.1
2023-08-30T22:25:00.159Z,1011.1
2023-08-30T22:30:00.170Z,1011.1
2023-08-30T22:35:00.135Z,1011.2
2023-08-30T22:40:00.161Z,1011.1
2023-08-30T22:45:00.172Z,1011.1
2023-08-30T22:50:00.140Z,1011.1
2023-08-30T22:55:00.144Z,1010.9
2023-08-30T23:00:00.134Z,1011.1
2023-08-30T23:05:00.164Z,1011.1
2023-08-30T23:10:00.202Z,1011.1
2023-08-30T23:15:00.147Z,1011.1
2023-08-30T23:20:00.150Z,1011.2
2023-08-30T23:25:00.140Z,1011.2
2023-08-30T23:30:00.126Z,1011.2
2023-08-30T23:35:00.129Z,1011.3
2023-08-30T23:40:00.132Z,1011.3
2023-08-30T23:45:00.130Z,1011.3
2023-08-30T23:50:00.226Z,1011.7
2023-08-30T23:55:00.154Z,1011.6
